createdAt,value
2023-01-26T00:00:31.875Z,14.60
2023-01-26T00:01:31.827Z,14.80
2023-01-26T00:02:31.870Z,15.00
2023-01-26T00:03:34.045Z,14.80
2023-01-26T00:04:31.830Z,15.80
2023-01-26T00:05:31.781Z,15.40
2023-01-26T00:06:31.771Z,16.60
2023-01-26T00:07:31.755Z,18.80
2023-01-26T00:08:31.799Z,20.20
2023-01-26T00:09:31.752Z,19.90
2023-01-26T00:10:31.728Z,18.00
2023-01-26T00:11:31.705Z,17.80
2023-01-26T00:12:31.690Z,16.70
2023-01-26T00:13:31.679Z,15.50
2023-01-26T00:14:31.687Z,16.40
2023-01-26T00:15:31.650Z,15.20
2023-01-26T00:16:31.704Z,15.00
2023-01-26T00:17:31.634Z,14.50
2023-01-26T00:18:31.623Z,15.70
2023-01-26T00:19:31.623Z,15.20
2023-01-26T00:20:31.605Z,15.50
2023-01-26T00:21:31.579Z,15.00
2023-01-26T00:22:31.564Z,15.30
2023-01-26T00:23:31.557Z,15.10
2023-01-26T00:24:31.577Z,15.50
2023-01-26T00:25:31.549Z,15.40
2023-01-26T00:26:31.523Z,15.50
2023-01-26T00:27:31.503Z,16.40
2023-01-26T00:28:31.490Z,15.70
2023-01-26T00:29:31.487Z,15.40
2023-01-26T00:30:31.565Z,15.70
2023-01-26T00:31:31.491Z,15.50
2023-01-26T00:32:31.441Z,15.20
2023-01-26T00:33:31.443Z,16.10
2023-01-26T00:34:31.432Z,15.00
2023-01-26T00:35:31.409Z,15.60
2023-01-26T00:36:31.394Z,15.00
2023-01-26T00:37:31.373Z,14.90
2023-01-26T00:38:31.377Z,15.00
2023-01-26T00:39:31.364Z,15.50
2023-01-26T00:40:31.361Z,15.80
2023-01-26T00:41:31.324Z,15.80
2023-01-26T00:42:31.321Z,16.10
2023-01-26T00:43:31.306Z,15.80
2023-01-26T00:44:31.325Z,15.30
2023-01-26T00:45:31.277Z,14.90
2023-01-26T00:46:31.332Z,14.90
2023-01-26T00:47:31.248Z,15.00
2023-01-26T00:48:31.244Z,15.40
2023-01-26T00:49:31.242Z,14.70
2023-01-26T00:50:31.223Z,15.90
2023-01-26T00:51:31.204Z,15.60
2023-01-26T00:52:31.191Z,15.00
2023-01-26T00:53:31.172Z,16.00
2023-01-26T00:54:31.161Z,15.20
2023-01-26T00:55:31.172Z,15.50
2023-01-26T00:56:31.175Z,15.30
2023-01-26T00:57:31.128Z,15.40
2023-01-26T00:58:31.112Z,15.70
2023-01-26T00:59:31.103Z,15.70
2023-01-26T01:00:31.163Z,15.20
2023-01-26T01:01:31.078Z,15.50
2023-01-26T01:02:31.071Z,15.10
2023-01-26T01:03:31.046Z,15.30
2023-01-26T01:04:31.044Z,15.50
2023-01-26T01:05:31.056Z,14.90
2023-01-26T01:06:31.012Z,15.00
2023-01-26T01:07:31.000Z,14.60
2023-01-26T01:08:31.032Z,14.50
2023-01-26T01:09:30.973Z,14.50
2023-01-26T01:10:30.981Z,15.10
2023-01-26T01:11:30.949Z,15.00
2023-01-26T01:12:30.950Z,14.40
2023-01-26T01:13:30.926Z,14.90
2023-01-26T01:14:30.907Z,15.00
2023-01-26T01:15:30.914Z,14.50
2023-01-26T01:16:30.907Z,15.60
2023-01-26T01:17:30.880Z,14.70
2023-01-26T01:18:30.857Z,15.20
2023-01-26T01:19:30.847Z,14.50
2023-01-26T01:20:30.847Z,15.90
2023-01-26T01:21:30.824Z,14.90
2023-01-26T01:22:30.812Z,15.00
2023-01-26T01:23:30.797Z,14.80
2023-01-26T01:24:30.779Z,14.30
2023-01-26T01:25:30.791Z,14.60
2023-01-26T01:26:30.759Z,14.60
2023-01-26T01:27:30.748Z,14.60
2023-01-26T01:28:30.759Z,14.60
2023-01-26T01:29:30.736Z,14.70
2023-01-26T01:30:30.724Z,14.80
2023-01-26T01:31:30.847Z,14.80
2023-01-26T01:32:30.679Z,14.70
2023-01-26T01:33:30.680Z,14.70
2023-01-26T01:34:30.660Z,15.10
2023-01-26T01:35:30.661Z,15.40
2023-01-26T01:36:30.631Z,15.10
2023-01-26T01:37:30.620Z,14.30
2023-01-26T01:38:30.608Z,15.00
2023-01-26T01:39:30.597Z,14.80
2023-01-26T01:40:30.600Z,14.00
2023-01-26T01:41:30.570Z,14.20
2023-01-26T01:42:30.581Z,14.50
2023-01-26T01:43:30.545Z,14.60
2023-01-26T01:44:30.553Z,13.60
2023-01-26T01:45:30.557Z,14.30
2023-01-26T01:46:30.531Z,13.90
2023-01-26T01:47:30.491Z,14.40
2023-01-26T01:48:30.480Z,14.00
2023-01-26T01:49:30.465Z,14.20
2023-01-26T01:50:30.466Z,13.40
2023-01-26T01:51:30.446Z,13.70
2023-01-26T01:52:30.431Z,14.30
2023-01-26T01:53:30.420Z,14.50
2023-01-26T01:54:30.401Z,14.00
2023-01-26T01:55:30.427Z,14.40
2023-01-26T01:56:30.392Z,14.80
2023-01-26T01:57:30.387Z,14.80
2023-01-26T01:58:30.354Z,14.50
2023-01-26T01:59:30.344Z,14.60
2023-01-26T02:00:30.444Z,14.10
2023-01-26T02:01:30.325Z,14.20
2023-01-26T02:02:32.067Z,14.70
2023-01-26T02:03:30.305Z,15.30
2023-01-26T02:04:30.279Z,14.70
2023-01-26T02:05:30.284Z,15.10
2023-01-26T02:06:30.252Z,15.70
2023-01-26T02:07:30.242Z,15.30
2023-01-26T02:08:30.227Z,15.50
2023-01-26T02:09:30.229Z,16.00
2023-01-26T02:10:30.200Z,15.90
2023-01-26T02:11:30.205Z,15.70
2023-01-26T02:12:30.176Z,17.20
2023-01-26T02:13:30.166Z,16.40
2023-01-26T02:14:30.153Z,16.30
2023-01-26T02:15:30.138Z,16.00
2023-01-26T02:16:30.229Z,15.80
2023-01-26T02:17:30.115Z,16.10
2023-01-26T02:18:30.124Z,15.50
2023-01-26T02:19:30.088Z,15.90
2023-01-26T02:20:30.081Z,15.80
2023-01-26T02:21:30.086Z,15.90
2023-01-26T02:22:30.058Z,16.20
2023-01-26T02:23:30.042Z,16.40
2023-01-26T02:24:30.044Z,15.80
2023-01-26T02:25:30.016Z,16.80
2023-01-26T02:26:30.023Z,17.40
2023-01-26T02:27:29.997Z,16.90
2023-01-26T02:28:29.975Z,17.80
2023-01-26T02:29:29.968Z,18.70
2023-01-26T02:30:29.978Z,18.30
2023-01-26T02:31:29.982Z,18.20
2023-01-26T02:32:29.947Z,19.20
2023-01-26T02:33:29.929Z,19.40
2023-01-26T02:34:29.912Z,19.10
2023-01-26T02:35:29.912Z,18.90
2023-01-26T02:36:29.893Z,19.40
2023-01-26T02:37:29.860Z,20.10
2023-01-26T02:38:29.849Z,19.40
2023-01-26T02:39:29.843Z,19.00
2023-01-26T02:40:29.828Z,20.30
2023-01-26T02:41:29.826Z,19.90
2023-01-26T02:42:29.807Z,19.40
2023-01-26T02:43:29.789Z,20.00
2023-01-26T02:44:29.777Z,20.70
2023-01-26T02:45:29.775Z,20.30
2023-01-26T02:46:29.873Z,19.90
2023-01-26T02:47:29.749Z,19.70
2023-01-26T02:48:29.745Z,19.30
2023-01-26T02:49:29.736Z,20.10
2023-01-26T02:50:29.701Z,19.50
2023-01-26T02:51:29.705Z,18.90
2023-01-26T02:52:29.670Z,19.20
2023-01-26T02:53:29.663Z,18.90
2023-01-26T02:54:29.647Z,19.20
2023-01-26T02:55:29.644Z,18.70
2023-01-26T02:59:42.685Z,17.80
2023-01-26T02:59:51.505Z,18.50
2023-01-26T03:00:51.556Z,18.20
2023-01-26T03:01:51.579Z,17.90
2023-01-26T03:02:51.466Z,17.30
2023-01-26T03:03:51.466Z,17.80
2023-01-26T03:04:51.432Z,17.00
2023-01-26T03:05:51.422Z,16.70
2023-01-26T03:06:51.426Z,17.50
2023-01-26T03:07:51.413Z,16.80
2023-01-26T03:08:51.387Z,16.20
2023-01-26T03:09:51.368Z,16.80
2023-01-26T03:10:51.374Z,16.90
2023-01-26T03:11:51.360Z,16.70
2023-01-26T03:12:51.332Z,17.10
2023-01-26T03:13:51.319Z,16.90
2023-01-26T03:14:51.307Z,17.30
2023-01-26T03:15:51.325Z,17.20
2023-01-26T03:16:51.293Z,16.40
2023-01-26T03:17:51.271Z,17.30
2023-01-26T03:18:51.250Z,16.20
2023-01-26T03:19:51.273Z,16.30
2023-01-26T03:20:51.228Z,16.00
2023-01-26T03:21:51.250Z,15.10
2023-01-26T03:22:51.213Z,16.10
2023-01-26T03:23:51.205Z,16.40
2023-01-26T03:24:51.177Z,16.00
2023-01-26T03:25:51.167Z,16.30
2023-01-26T03:26:51.159Z,16.40
2023-01-26T03:27:51.163Z,15.60
2023-01-26T03:28:51.123Z,15.50
2023-01-26T03:29:51.110Z,15.70
2023-01-26T03:30:51.147Z,15.20
2023-01-26T03:31:51.099Z,14.20
2023-01-26T03:32:51.091Z,14.60
2023-01-26T03:33:51.065Z,14.40
2023-01-26T03:34:51.052Z,14.10
2023-01-26T03:35:51.065Z,13.70
2023-01-26T03:36:51.027Z,13.20
2023-01-26T03:37:51.055Z,13.20
2023-01-26T03:38:51.004Z,12.00
2023-01-26T03:39:50.988Z,12.90
2023-01-26T03:40:50.976Z,12.40
2023-01-26T03:41:50.963Z,12.80
2023-01-26T03:42:51.004Z,12.80
2023-01-26T03:43:50.937Z,12.60
2023-01-26T03:44:50.923Z,12.70
2023-01-26T03:45:50.913Z,13.10
2023-01-26T03:46:50.928Z,13.10
2023-01-26T03:47:50.913Z,13.20
2023-01-26T03:48:50.891Z,13.40
2023-01-26T03:49:50.867Z,13.30
2023-01-26T03:50:50.843Z,13.10
2023-01-26T03:51:50.858Z,12.10
2023-01-26T03:52:50.837Z,11.50
2023-01-26T03:53:50.807Z,12.40
2023-01-26T03:54:50.793Z,12.00
2023-01-26T03:55:50.781Z,11.60
2023-01-26T03:56:50.767Z,11.20
2023-01-26T03:57:50.779Z,11.30
2023-01-26T03:58:50.746Z,11.50
2023-01-26T03:59:50.735Z,11.90
2023-01-26T04:00:50.741Z,12.10
2023-01-26T04:01:50.745Z,11.40
2023-01-26T04:02:50.714Z,11.70
2023-01-26T04:03:50.681Z,10.90
2023-01-26T04:04:50.693Z,10.60
2023-01-26T04:05:50.656Z,10.50
2023-01-26T04:06:50.639Z,11.10
2023-01-26T04:07:50.680Z,11.10
2023-01-26T04:08:50.617Z,11.40
2023-01-26T04:09:50.603Z,11.10
2023-01-26T04:10:50.594Z,11.30
2023-01-26T04:11:50.578Z,10.80
2023-01-26T04:12:50.579Z,11.00
2023-01-26T04:13:50.551Z,10.80
2023-01-26T04:14:50.877Z,10.40
2023-01-26T04:15:50.532Z,11.20
2023-01-26T04:16:50.537Z,10.80
2023-01-26T04:17:50.520Z,10.50
2023-01-26T04:18:50.486Z,11.00
2023-01-26T04:19:50.476Z,11.00
2023-01-26T04:20:50.460Z,11.40
2023-01-26T04:21:50.450Z,10.80
2023-01-26T04:22:50.449Z,11.30
2023-01-26T04:23:50.453Z,11.90
2023-01-26T04:24:50.416Z,11.30
2023-01-26T04:25:50.404Z,11.40
2023-01-26T04:26:50.386Z,10.90
2023-01-26T04:27:50.407Z,11.00
2023-01-26T04:28:50.360Z,11.10
2023-01-26T04:29:50.346Z,11.30
2023-01-26T04:30:50.410Z,10.70
2023-01-26T04:31:50.377Z,10.80
2023-01-26T04:32:50.307Z,11.00
2023-01-26T04:33:50.318Z,10.80
2023-01-26T04:34:50.287Z,10.70
2023-01-26T04:35:50.276Z,10.50
2023-01-26T04:36:50.267Z,10.30
2023-01-26T04:37:50.246Z,10.10
2023-01-26T04:38:50.247Z,10.10
2023-01-26T04:39:50.242Z,9.80
2023-01-26T04:40:50.213Z,10.10
2023-01-26T04:41:50.203Z,9.90
2023-01-26T04:42:50.184Z,9.50
2023-01-26T04:43:50.192Z,10.00
2023-01-26T04:44:50.163Z,10.10
2023-01-26T04:45:50.199Z,9.80
2023-01-26T04:46:50.127Z,9.80
2023-01-26T04:47:50.121Z,9.90
2023-01-26T04:48:50.121Z,10.00
2023-01-26T04:49:50.099Z,9.40
2023-01-26T04:50:50.091Z,9.60
2023-01-26T04:51:50.067Z,9.80
2023-01-26T04:52:50.055Z,10.10
2023-01-26T04:53:50.083Z,10.10
2023-01-26T04:54:50.059Z,9.80
2023-01-26T04:55:50.040Z,9.50
2023-01-26T04:56:50.008Z,9.60
2023-01-26T04:57:49.994Z,9.70
2023-01-26T04:58:50.005Z,9.30
2023-01-26T04:59:49.982Z,9.40
2023-01-26T05:00:49.976Z,9.80
2023-01-26T05:01:49.937Z,9.40
2023-01-26T05:02:49.935Z,9.90
2023-01-26T05:03:49.931Z,9.80
2023-01-26T05:04:49.902Z,9.30
2023-01-26T05:05:49.905Z,9.50
2023-01-26T05:06:49.876Z,9.60
2023-01-26T05:07:49.864Z,9.50
2023-01-26T05:08:49.890Z,10.10
2023-01-26T05:09:49.837Z,10.80
2023-01-26T05:10:49.849Z,10.30
2023-01-26T05:11:49.830Z,9.90
2023-01-26T05:12:49.802Z,10.40
2023-01-26T05:13:49.800Z,10.00
2023-01-26T05:14:49.793Z,11.40
2023-01-26T05:15:49.760Z,11.10
2023-01-26T05:16:49.817Z,11.30
2023-01-26T05:17:49.740Z,11.20
2023-01-26T05:18:49.747Z,11.40
2023-01-26T05:19:49.709Z,10.90
2023-01-26T05:20:49.703Z,11.00
2023-01-26T05:21:49.693Z,10.10
2023-01-26T05:22:49.679Z,10.80
2023-01-26T05:23:49.784Z,10.90
2023-01-26T05:24:49.650Z,10.90
2023-01-26T05:25:49.631Z,11.60
2023-01-26T05:26:49.622Z,11.00
2023-01-26T05:27:49.632Z,11.90
2023-01-26T05:28:49.616Z,10.80
2023-01-26T05:29:49.588Z,11.00
2023-01-26T05:30:49.581Z,10.70
2023-01-26T05:31:49.622Z,11.20
2023-01-26T05:32:49.551Z,11.20
2023-01-26T05:33:49.545Z,11.70
2023-01-26T05:34:49.522Z,10.20
2023-01-26T05:35:49.519Z,9.90
2023-01-26T05:36:49.497Z,9.60
2023-01-26T05:37:49.479Z,9.80
2023-01-26T05:38:49.484Z,9.60
2023-01-26T05:39:49.452Z,8.60
2023-01-26T05:40:49.441Z,8.50
2023-01-26T05:41:49.430Z,8.90
2023-01-26T05:42:49.436Z,8.40
2023-01-26T05:43:49.463Z,8.90
2023-01-26T05:44:49.394Z,8.70
2023-01-26T05:45:49.443Z,7.70
2023-01-26T05:46:49.369Z,8.20
2023-01-26T05:47:49.359Z,8.50
2023-01-26T05:48:49.344Z,8.50
2023-01-26T05:49:49.352Z,8.10
2023-01-26T05:50:49.319Z,7.80
2023-01-26T05:51:49.304Z,7.90
2023-01-26T05:52:49.295Z,8.80
2023-01-26T05:53:49.283Z,8.10
2023-01-26T05:54:49.279Z,7.90
2023-01-26T05:55:49.256Z,7.70
2023-01-26T05:56:49.243Z,8.40
2023-01-26T05:57:49.226Z,8.70
2023-01-26T05:58:49.225Z,8.00
2023-01-26T05:59:49.254Z,8.40
2023-01-26T06:00:49.197Z,8.90
2023-01-26T06:01:49.233Z,8.50
2023-01-26T06:02:49.162Z,9.60
2023-01-26T06:03:49.160Z,9.70
2023-01-26T06:04:49.150Z,10.00
2023-01-26T06:05:49.128Z,9.00
2023-01-26T06:06:49.116Z,8.60
2023-01-26T06:07:49.098Z,8.20
2023-01-26T06:08:49.088Z,8.90
2023-01-26T06:09:49.100Z,9.80
2023-01-26T06:10:49.067Z,9.70
2023-01-26T06:11:49.047Z,9.70
2023-01-26T06:12:49.036Z,9.30
2023-01-26T06:13:49.020Z,9.70
2023-01-26T06:14:49.028Z,10.30
2023-01-26T06:15:49.018Z,10.10
2023-01-26T06:16:49.098Z,10.80
2023-01-26T06:17:48.969Z,10.90
2023-01-26T06:18:48.959Z,12.30
2023-01-26T06:19:48.965Z,13.00
2023-01-26T06:20:48.937Z,10.80
2023-01-26T06:21:48.922Z,10.00
2023-01-26T06:22:48.912Z,8.70
2023-01-26T06:23:48.921Z,8.10
2023-01-26T06:24:48.899Z,9.10
2023-01-26T06:25:48.884Z,8.40
2023-01-26T06:26:48.860Z,8.80
2023-01-26T06:27:48.852Z,8.70
2023-01-26T06:28:48.829Z,8.80
2023-01-26T06:29:48.840Z,8.40
2023-01-26T06:30:48.943Z,8.40
2023-01-26T06:31:48.914Z,8.30
2023-01-26T06:32:48.787Z,8.40
2023-01-26T06:33:48.779Z,8.80
2023-01-26T06:34:48.784Z,7.60
2023-01-26T06:35:48.744Z,7.70
2023-01-26T06:36:48.732Z,8.10
2023-01-26T06:37:48.720Z,7.30
2023-01-26T06:38:48.706Z,7.50
2023-01-26T06:39:48.738Z,8.70
2023-01-26T06:40:48.680Z,8.70
2023-01-26T06:41:48.673Z,8.40
2023-01-26T06:42:48.673Z,8.50
2023-01-26T06:43:48.666Z,8.40
2023-01-26T06:44:48.676Z,8.50
2023-01-26T06:45:48.670Z,8.60
2023-01-26T06:46:48.630Z,7.80
2023-01-26T06:47:48.640Z,8.20
2023-01-26T06:48:48.591Z,7.80
2023-01-26T06:49:48.583Z,7.80
2023-01-26T06:50:48.576Z,7.20
2023-01-26T06:51:48.551Z,6.70
2023-01-26T06:52:48.529Z,6.60
2023-01-26T06:53:48.520Z,7.60
2023-01-26T06:54:48.502Z,7.60
2023-01-26T06:55:48.507Z,7.40
2023-01-26T06:56:48.493Z,7.40
2023-01-26T06:57:48.463Z,7.00
2023-01-26T06:58:48.452Z,7.50
2023-01-26T06:59:48.445Z,8.30
2023-01-26T07:00:48.441Z,7.80
2023-01-26T07:01:48.412Z,7.60
2023-01-26T07:02:48.428Z,7.40
2023-01-26T07:03:48.414Z,7.20
2023-01-26T07:04:48.381Z,6.90
2023-01-26T07:05:48.384Z,6.70
2023-01-26T07:06:48.371Z,6.60
2023-01-26T07:07:48.334Z,7.00
2023-01-26T07:08:48.324Z,7.10
2023-01-26T07:09:48.311Z,6.90
2023-01-26T07:10:48.314Z,6.60
2023-01-26T07:11:48.286Z,6.00
2023-01-26T07:12:48.275Z,6.40
2023-01-26T07:13:48.257Z,6.50
2023-01-26T07:14:48.250Z,6.20
2023-01-26T07:15:48.265Z,6.20
2023-01-26T07:16:48.286Z,6.20
2023-01-26T07:17:48.235Z,6.70
2023-01-26T07:18:48.198Z,6.70
2023-01-26T07:19:48.203Z,5.80
2023-01-26T07:20:48.188Z,5.30
2023-01-26T07:21:48.159Z,5.60
2023-01-26T07:22:48.147Z,5.30
2023-01-26T07:23:48.173Z,5.50
2023-01-26T07:24:48.133Z,5.50
2023-01-26T07:25:48.130Z,5.40
2023-01-26T07:26:48.101Z,5.80
2023-01-26T07:27:48.092Z,5.90
2023-01-26T07:28:48.067Z,6.00
2023-01-26T07:29:48.057Z,6.10
2023-01-26T07:30:48.150Z,6.00
2023-01-26T07:31:48.141Z,6.30
2023-01-26T07:32:48.040Z,6.60
2023-01-26T07:33:48.013Z,6.20
2023-01-26T07:34:47.993Z,6.20
2023-01-26T07:35:48.016Z,5.60
2023-01-26T07:36:48.029Z,5.30
2023-01-26T07:37:47.956Z,5.30
2023-01-26T07:38:47.941Z,5.30
2023-01-26T07:39:47.935Z,5.40
2023-01-26T07:40:47.934Z,5.60
2023-01-26T07:41:47.910Z,5.90
2023-01-26T07:42:47.890Z,5.80
2023-01-26T07:43:47.952Z,5.90
2023-01-26T07:44:47.869Z,5.60
2023-01-26T07:45:47.873Z,6.20
2023-01-26T07:46:47.878Z,6.00
2023-01-26T07:47:47.825Z,6.00
2023-01-26T07:48:47.817Z,5.80
2023-01-26T07:49:47.818Z,5.60
2023-01-26T07:50:47.852Z,5.20
2023-01-26T07:51:47.793Z,4.90
2023-01-26T07:52:47.765Z,5.40
2023-01-26T07:53:47.755Z,6.30
2023-01-26T07:54:47.739Z,6.50
2023-01-26T07:55:47.769Z,6.00
2023-01-26T07:56:47.715Z,5.90
2023-01-26T07:57:47.699Z,5.90
2023-01-26T07:58:47.690Z,5.60
2023-01-26T07:59:47.678Z,5.70
2023-01-26T08:00:47.679Z,5.40
2023-01-26T08:01:47.718Z,6.20
2023-01-26T08:02:47.770Z,5.80
2023-01-26T08:03:47.623Z,5.80
2023-01-26T08:04:47.614Z,5.80
2023-01-26T08:05:47.602Z,5.90
2023-01-26T08:06:47.627Z,5.80
2023-01-26T08:07:47.597Z,5.90
2023-01-26T08:08:47.565Z,6.20
2023-01-26T08:09:47.548Z,6.10
2023-01-26T08:10:47.535Z,5.80
2023-01-26T08:11:47.553Z,5.90
2023-01-26T08:12:47.514Z,6.30
2023-01-26T08:13:47.492Z,6.30
2023-01-26T08:14:47.519Z,6.40
2023-01-26T08:15:47.473Z,7.00
2023-01-26T08:16:47.533Z,6.50
2023-01-26T08:17:47.453Z,6.70
2023-01-26T08:18:47.466Z,6.50
2023-01-26T08:19:47.422Z,6.50
2023-01-26T08:20:47.420Z,6.60
2023-01-26T08:21:47.415Z,6.80
2023-01-26T08:22:47.393Z,6.50
2023-01-26T08:23:47.425Z,6.80
2023-01-26T08:24:47.373Z,6.40
2023-01-26T08:25:47.551Z,6.50
2023-01-26T08:26:47.351Z,7.20
2023-01-26T08:27:47.329Z,7.40
2023-01-26T08:28:47.324Z,7.80
2023-01-26T08:29:47.309Z,7.90
2023-01-26T08:30:47.338Z,7.40
2023-01-26T08:31:47.352Z,7.40
2023-01-26T08:32:47.268Z,7.20
2023-01-26T08:33:47.243Z,6.70
2023-01-26T08:34:47.234Z,6.50
2023-01-26T08:35:47.216Z,6.50
2023-01-26T08:36:47.223Z,6.80
2023-01-26T08:37:47.200Z,7.10
2023-01-26T08:38:47.179Z,7.00
2023-01-26T08:39:47.195Z,7.00
2023-01-26T08:40:47.155Z,6.60
2023-01-26T08:41:47.170Z,7.00
2023-01-26T08:42:47.131Z,6.80
2023-01-26T08:43:47.118Z,7.20
2023-01-26T08:44:47.099Z,7.10
2023-01-26T08:45:47.123Z,7.40
2023-01-26T08:46:47.099Z,7.40
2023-01-26T08:47:47.061Z,7.50
2023-01-26T08:48:47.056Z,7.00
2023-01-26T08:49:47.039Z,6.60
2023-01-26T08:50:47.057Z,7.10
2023-01-26T08:51:47.027Z,7.10
2023-01-26T08:52:46.997Z,7.50
2023-01-26T08:53:46.997Z,7.60
2023-01-26T08:54:46.975Z,7.10
2023-01-26T08:55:46.985Z,7.00
2023-01-26T08:56:46.965Z,6.90
2023-01-26T08:57:46.935Z,6.60
2023-01-26T08:58:46.924Z,7.30
2023-01-26T08:59:46.910Z,7.30
2023-01-26T09:00:46.949Z,7.50
2023-01-26T09:01:47.513Z,8.00
2023-01-26T09:02:47.930Z,7.90
2023-01-26T09:03:46.857Z,7.90
2023-01-26T09:04:46.846Z,7.40
2023-01-26T09:05:46.836Z,6.30
2023-01-26T09:06:46.833Z,6.10
2023-01-26T09:07:46.810Z,6.70
2023-01-26T09:08:46.801Z,6.50
2023-01-26T09:09:46.782Z,7.20
2023-01-26T09:10:46.766Z,7.00
2023-01-26T09:11:46.793Z,6.70
2023-01-26T09:12:46.745Z,6.00
2023-01-26T09:13:46.735Z,6.40
2023-01-26T09:14:46.716Z,6.10
2023-01-26T09:15:46.708Z,6.10
2023-01-26T09:16:46.777Z,5.80
2023-01-26T09:17:46.683Z,5.60
2023-01-26T09:18:46.667Z,6.20
2023-01-26T09:19:46.673Z,5.70
2023-01-26T09:20:46.647Z,6.10
2023-01-26T09:21:46.646Z,6.20
2023-01-26T09:22:46.630Z,5.60
2023-01-26T09:23:46.614Z,6.00
2023-01-26T09:24:46.608Z,6.20
2023-01-26T09:25:46.585Z,6.50
2023-01-26T09:26:46.576Z,6.70
2023-01-26T09:27:46.600Z,6.70
2023-01-26T09:28:46.540Z,7.00
2023-01-26T09:29:46.559Z,7.40
2023-01-26T09:30:46.604Z,7.60
2023-01-26T09:31:46.595Z,8.10
2023-01-26T09:32:46.514Z,8.00
2023-01-26T09:33:46.481Z,8.20
2023-01-26T09:34:46.465Z,8.30
2023-01-26T09:35:46.450Z,8.10
2023-01-26T09:36:46.451Z,8.10
2023-01-26T09:37:46.452Z,8.90
2023-01-26T09:38:46.416Z,9.40
2023-01-26T09:39:46.404Z,9.50
2023-01-26T09:40:46.384Z,8.10
2023-01-26T09:41:46.377Z,8.20
2023-01-26T09:42:46.377Z,7.90
2023-01-26T09:43:46.370Z,8.10
2023-01-26T09:44:46.339Z,7.40
2023-01-26T09:45:46.326Z,8.00
2023-01-26T09:46:46.327Z,7.70
2023-01-26T09:47:46.325Z,6.90
2023-01-26T09:48:46.290Z,7.00
2023-01-26T09:49:46.275Z,7.50
2023-01-26T09:50:46.261Z,7.30
2023-01-26T09:51:46.271Z,8.00
2023-01-26T09:52:46.251Z,7.90
2023-01-26T09:53:46.224Z,7.70
2023-01-26T09:54:46.205Z,7.90
2023-01-26T09:55:46.197Z,8.20
2023-01-26T09:56:46.182Z,8.80
2023-01-26T09:57:46.182Z,8.40
2023-01-26T09:58:46.154Z,8.30
2023-01-26T09:59:46.181Z,7.90
2023-01-26T10:00:46.144Z,8.40
2023-01-26T10:01:46.169Z,8.10
2023-01-26T10:02:46.199Z,8.20
2023-01-26T10:03:46.102Z,8.20
2023-01-26T10:04:46.090Z,8.10
2023-01-26T10:05:46.067Z,7.80
2023-01-26T10:06:46.057Z,7.80
2023-01-26T10:07:46.060Z,7.40
2023-01-26T10:08:46.033Z,8.20
2023-01-26T10:09:46.261Z,7.90
2023-01-26T10:10:46.006Z,7.70
2023-01-26T10:11:45.997Z,7.30
2023-01-26T10:12:45.995Z,7.60
2023-01-26T10:13:45.964Z,8.20
2023-01-26T10:14:46.040Z,7.80
2023-01-26T10:15:45.983Z,8.10
2023-01-26T10:16:45.927Z,8.70
2023-01-26T10:17:45.936Z,8.20
2023-01-26T10:18:45.940Z,8.40
2023-01-26T10:19:45.917Z,8.10
2023-01-26T10:20:45.873Z,7.70
2023-01-26T10:21:45.875Z,7.80
2023-01-26T10:22:45.864Z,7.40
2023-01-26T10:23:45.839Z,7.60
2023-01-26T10:24:45.825Z,8.30
2023-01-26T10:25:45.811Z,8.50
2023-01-26T10:26:45.800Z,8.90
2023-01-26T10:27:45.836Z,8.60
2023-01-26T10:28:45.775Z,8.60
2023-01-26T10:29:45.763Z,9.10
2023-01-26T10:30:45.873Z,9.20
2023-01-26T10:31:45.820Z,9.40
2023-01-26T10:32:45.746Z,8.70
2023-01-26T10:33:45.716Z,8.80
2023-01-26T10:34:45.697Z,8.00
2023-01-26T10:35:45.691Z,8.00
2023-01-26T10:36:45.680Z,7.50
2023-01-26T10:37:45.661Z,7.90
2023-01-26T10:38:45.667Z,8.10
2023-01-26T10:39:45.642Z,8.30
2023-01-26T10:40:45.662Z,7.20
2023-01-26T10:41:45.606Z,7.90
2023-01-26T10:42:45.594Z,7.70
2023-01-26T10:43:45.596Z,8.00
2023-01-26T10:44:45.569Z,7.80
2023-01-26T10:45:45.562Z,8.80
2023-01-26T10:46:45.555Z,9.50
2023-01-26T10:47:45.549Z,9.90
2023-01-26T10:48:45.538Z,9.70
2023-01-26T10:49:45.512Z,9.80
2023-01-26T10:50:45.501Z,10.10
2023-01-26T10:51:45.484Z,9.50
2023-01-26T10:52:45.471Z,10.30
2023-01-26T10:53:45.474Z,10.90
2023-01-26T10:54:45.448Z,11.10
2023-01-26T10:55:45.432Z,12.00
2023-01-26T10:56:45.413Z,12.70
2023-01-26T10:57:45.406Z,13.20
2023-01-26T10:58:45.406Z,13.20
2023-01-26T10:59:45.377Z,12.70
2023-01-26T11:00:45.367Z,12.50
2023-01-26T11:01:45.442Z,13.10
2023-01-26T11:02:45.355Z,12.90
2023-01-26T11:03:45.363Z,12.70
2023-01-26T11:04:45.318Z,12.70
2023-01-26T11:05:45.303Z,13.00
2023-01-26T11:06:45.287Z,13.20
2023-01-26T11:07:45.289Z,13.60
2023-01-26T11:08:45.276Z,12.90
2023-01-26T11:09:45.262Z,13.00
2023-01-26T11:10:45.236Z,11.80
2023-01-26T11:11:45.232Z,12.20
2023-01-26T11:12:45.216Z,13.10
2023-01-26T11:13:45.214Z,12.60
2023-01-26T11:14:45.188Z,12.20
2023-01-26T11:15:45.176Z,12.90
2023-01-26T11:16:45.164Z,12.90
2023-01-26T11:17:45.150Z,12.60
2023-01-26T11:18:45.148Z,12.70
2023-01-26T11:19:45.143Z,13.00
2023-01-26T11:20:45.132Z,13.30
2023-01-26T11:21:45.101Z,13.40
2023-01-26T11:22:45.093Z,13.50
2023-01-26T11:23:45.096Z,12.80
2023-01-26T11:24:45.079Z,13.60
2023-01-26T11:25:45.062Z,13.40
2023-01-26T11:26:45.042Z,13.20
2023-01-26T11:27:45.032Z,12.50
2023-01-26T11:28:45.023Z,13.10
2023-01-26T11:29:45.002Z,13.70
2023-01-26T11:30:45.016Z,12.60
2023-01-26T11:31:45.173Z,11.90
2023-01-26T11:32:44.975Z,13.60
2023-01-26T11:33:44.964Z,13.70
2023-01-26T11:34:44.931Z,13.40
2023-01-26T11:35:44.949Z,13.70
2023-01-26T11:36:44.911Z,13.10
2023-01-26T11:37:44.908Z,13.70
2023-01-26T11:38:44.901Z,13.90
2023-01-26T11:39:44.869Z,13.50
2023-01-26T11:40:44.858Z,13.20
2023-01-26T11:41:44.844Z,13.20
2023-01-26T11:42:44.828Z,13.20
2023-01-26T11:43:44.852Z,13.60
2023-01-26T11:44:44.814Z,12.20
2023-01-26T11:45:44.807Z,12.20
2023-01-26T11:46:44.781Z,12.60
2023-01-26T11:47:44.764Z,11.00
2023-01-26T11:48:44.757Z,10.10
2023-01-26T11:49:44.760Z,9.20
2023-01-26T11:50:44.727Z,10.00
2023-01-26T11:51:44.733Z,10.30
2023-01-26T11:52:44.704Z,11.40
2023-01-26T11:53:44.694Z,11.90
2023-01-26T11:54:44.690Z,11.50
2023-01-26T11:55:44.684Z,10.30
2023-01-26T11:56:44.652Z,9.20
2023-01-26T11:57:44.640Z,9.90
2023-01-26T11:58:44.623Z,10.00
2023-01-26T11:59:44.625Z,9.60
2023-01-26T12:00:44.598Z,10.00
2023-01-26T12:01:44.590Z,9.90
2023-01-26T12:02:44.606Z,10.00
2023-01-26T12:03:44.639Z,10.60
2023-01-26T12:04:44.578Z,11.30
2023-01-26T12:05:44.539Z,11.00
2023-01-26T12:06:44.523Z,11.10
2023-01-26T12:07:44.528Z,10.70
2023-01-26T12:08:44.509Z,11.40
2023-01-26T12:09:44.524Z,11.00
2023-01-26T12:10:44.482Z,11.50
2023-01-26T12:11:44.458Z,11.50
2023-01-26T12:12:44.451Z,11.60
2023-01-26T12:13:44.442Z,12.50
2023-01-26T12:14:44.441Z,11.30
2023-01-26T12:15:44.409Z,10.70
2023-01-26T12:16:44.443Z,9.80
2023-01-26T12:17:44.380Z,9.50
2023-01-26T12:18:55.810Z,11.60
2023-01-26T12:19:44.372Z,12.10
2023-01-26T12:20:44.342Z,11.80
2023-01-26T12:21:44.387Z,12.70
2023-01-26T12:22:44.319Z,13.80
2023-01-26T12:23:44.334Z,13.70
2023-01-26T12:25:16.194Z,14.40
2023-01-26T12:25:45.340Z,14.40
2023-01-26T12:26:44.271Z,14.40
2023-01-26T12:27:44.251Z,14.10
2023-01-26T12:28:44.245Z,13.80
2023-01-26T12:29:44.239Z,13.70
2023-01-26T12:30:44.344Z,14.30
2023-01-26T12:31:44.290Z,13.50
2023-01-26T12:32:44.205Z,12.90
2023-01-26T12:33:44.177Z,12.50
2023-01-26T12:34:44.188Z,12.80
2023-01-26T12:35:44.153Z,13.30
2023-01-26T12:36:44.135Z,13.10
2023-01-26T12:37:44.120Z,13.20
2023-01-26T12:38:44.121Z,13.50
2023-01-26T12:39:44.235Z,13.00
2023-01-26T12:40:44.105Z,12.40
2023-01-26T12:41:44.074Z,12.90
2023-01-26T12:42:44.073Z,12.50
2023-01-26T12:43:44.088Z,12.30
2023-01-26T12:44:44.062Z,12.80
2023-01-26T12:45:44.019Z,12.40
2023-01-26T12:46:44.021Z,12.30
2023-01-26T12:47:43.995Z,13.10
2023-01-26T12:48:43.981Z,14.20
2023-01-26T12:49:44.078Z,12.90
2023-01-26T12:50:43.959Z,13.00
2023-01-26T12:51:43.946Z,13.30
2023-01-26T12:52:43.932Z,12.60
2023-01-26T12:53:43.917Z,12.70
2023-01-26T12:54:43.924Z,12.70
2023-01-26T12:55:43.913Z,12.30
2023-01-26T12:56:43.887Z,12.90
2023-01-26T12:57:43.869Z,13.50
2023-01-26T12:58:43.860Z,12.60
2023-01-26T12:59:48.214Z,12.50
2023-01-26T13:00:43.845Z,13.10
2023-01-26T13:01:43.959Z,13.50
2023-01-26T13:02:43.900Z,13.00
2023-01-26T13:03:43.787Z,13.20
2023-01-26T13:04:43.800Z,12.80
2023-01-26T13:05:43.784Z,13.50